createdAt,value
2018-03-03T00:02:02.072Z,9.02
2018-03-03T00:04:29.836Z,8.05
2018-03-03T00:06:57.510Z,9.18
2018-03-03T00:09:25.236Z,9.80
2018-03-03T00:11:52.899Z,8.75
2018-03-03T00:14:20.606Z,6.95
2018-03-03T00:16:48.309Z,9.43
2018-03-03T00:19:16.022Z,6.50
2018-03-03T00:21:43.717Z,5.75
2018-03-03T00:24:11.402Z,7.78
2018-03-03T00:26:39.113Z,7.65
2018-03-03T00:29:06.826Z,8.85
2018-03-03T00:31:34.516Z,7.50
2018-03-03T00:34:02.404Z,7.78
2018-03-03T00:36:30.128Z,8.55
2018-03-03T00:38:57.815Z,4.28
2018-03-03T00:41:25.502Z,10.63
2018-03-03T00:43:53.154Z,7.12
2018-03-03T00:46:20.851Z,8.65
2018-03-03T00:48:48.549Z,7.12
2018-03-03T00:51:16.249Z,8.35
2018-03-03T00:53:43.932Z,7.15
2018-03-03T00:56:11.692Z,9.48
2018-03-03T00:58:39.350Z,5.95
2018-03-03T01:01:07.809Z,5.80
2018-03-03T01:03:35.464Z,6.90
2018-03-03T01:06:03.192Z,6.68
2018-03-03T01:08:31.004Z,5.87
2018-03-03T01:10:58.711Z,6.22
2018-03-03T01:13:26.386Z,7.45
2018-03-03T01:15:54.754Z,5.07
2018-03-03T01:18:22.415Z,6.03
2018-03-03T01:20:50.159Z,6.65
2018-03-03T01:23:17.840Z,5.70
2018-03-03T01:25:46.396Z,5.12
2018-03-03T01:28:14.053Z,7.07
2018-03-03T01:30:41.834Z,6.80
2018-03-03T01:33:09.523Z,6.85
2018-03-03T01:35:37.231Z,6.70
2018-03-03T01:38:04.974Z,6.53
2018-03-03T01:40:32.676Z,5.43
2018-03-03T01:43:00.347Z,8.25
2018-03-03T01:45:28.116Z,5.82
2018-03-03T01:47:55.795Z,4.90
2018-03-03T01:50:23.720Z,5.85
2018-03-03T01:52:51.395Z,6.22
2018-03-03T01:55:19.447Z,7.50
2018-03-03T01:57:47.145Z,8.13
2018-03-03T02:00:14.837Z,7.90
2018-03-03T02:02:42.551Z,6.55
2018-03-03T02:05:10.196Z,8.27
2018-03-03T02:07:37.883Z,8.95
2018-03-03T02:10:05.567Z,8.05
2018-03-03T02:12:33.255Z,7.75
2018-03-03T02:15:00.933Z,5.37
2018-03-03T02:17:28.636Z,7.72
2018-03-03T02:19:56.313Z,8.80
2018-03-03T02:22:25.517Z,8.80
2018-03-03T02:24:53.771Z,8.40
2018-03-03T02:27:21.609Z,8.00
2018-03-03T02:29:49.361Z,6.55
2018-03-03T02:32:17.044Z,7.05
2018-03-03T02:34:45.507Z,9.20
2018-03-03T02:37:13.207Z,7.22
2018-03-03T02:39:40.861Z,8.25
2018-03-03T02:42:08.573Z,7.80
2018-03-03T02:44:36.284Z,8.90
2018-03-03T02:47:03.972Z,7.30
2018-03-03T02:49:31.643Z,8.70
2018-03-03T02:51:59.332Z,8.68
2018-03-03T02:54:27.054Z,8.70
2018-03-03T02:56:54.746Z,8.40
2018-03-03T02:59:22.499Z,8.38
2018-03-03T03:01:50.243Z,6.30
2018-03-03T03:04:17.971Z,8.57
2018-03-03T03:06:45.715Z,8.52
2018-03-03T03:09:13.395Z,5.65
2018-03-03T03:11:41.085Z,6.90
2018-03-03T03:14:08.730Z,8.23
2018-03-03T03:16:36.482Z,6.70
2018-03-03T03:19:04.883Z,9.05
2018-03-03T03:21:32.578Z,9.52
2018-03-03T03:24:00.234Z,9.18
2018-03-03T03:26:27.926Z,8.32
2018-03-03T03:28:55.574Z,8.55
2018-03-03T03:31:23.264Z,7.50
2018-03-03T03:33:50.987Z,7.68
2018-03-03T03:36:18.677Z,8.25
2018-03-03T03:38:46.378Z,7.90
2018-03-03T03:41:14.042Z,8.60
2018-03-03T03:43:41.726Z,5.53
2018-03-03T03:46:09.383Z,8.63
2018-03-03T03:48:37.076Z,5.62
2018-03-03T03:51:04.760Z,7.65
2018-03-03T03:53:32.471Z,8.63
2018-03-03T03:56:00.191Z,8.73
2018-03-03T03:58:27.910Z,8.32
2018-03-03T04:00:56.632Z,4.65
2018-03-03T04:03:24.371Z,8.75
2018-03-03T04:05:52.058Z,8.48
2018-03-03T04:08:19.751Z,9.20
2018-03-03T04:10:47.995Z,6.55
2018-03-03T04:13:15.694Z,8.50
2018-03-03T04:15:43.456Z,9.80
2018-03-03T04:18:11.176Z,6.37
2018-03-03T04:20:38.903Z,8.15
2018-03-03T04:23:06.607Z,8.90
2018-03-03T04:25:34.294Z,9.52
2018-03-03T04:28:02.006Z,9.13
2018-03-03T04:30:29.732Z,7.97
2018-03-03T04:32:57.449Z,8.88
2018-03-03T04:35:25.160Z,7.07
2018-03-03T04:37:53.686Z,9.05
2018-03-03T04:40:21.951Z,9.95
2018-03-03T04:42:49.666Z,9.57
2018-03-03T04:45:17.354Z,7.15
2018-03-03T04:47:45.051Z,8.13
2018-03-03T04:50:12.743Z,9.80
2018-03-03T04:52:40.449Z,8.63
2018-03-03T04:55:08.118Z,8.18
2018-03-03T04:57:36.189Z,9.88
2018-03-03T05:00:09.604Z,9.55
2018-03-03T05:05:45.036Z,9.10
2018-03-03T05:08:15.268Z,4.45
2018-03-03T05:10:45.287Z,6.45
2018-03-03T05:13:13.710Z,8.85
2018-03-03T05:15:46.953Z,8.63
2018-03-03T05:18:20.236Z,5.15
2018-03-03T05:20:53.522Z,9.23
2018-03-03T05:23:26.784Z,6.60
2018-03-03T05:26:00.031Z,7.68
2018-03-03T05:28:33.366Z,10.10
2018-03-03T05:31:06.645Z,6.43
2018-03-03T05:33:43.144Z,11.05
2018-03-03T05:36:16.302Z,10.82
2018-03-03T05:38:49.634Z,7.05
2018-03-03T05:41:37.208Z,9.40
2018-03-03T05:44:10.572Z,7.78
2018-03-03T05:46:39.087Z,5.30
2018-03-03T05:49:07.745Z,8.48
2018-03-03T05:54:40.014Z,10.60
2018-03-03T05:57:09.155Z,8.75
2018-03-03T05:59:42.496Z,10.80
2018-03-03T06:02:10.415Z,8.32
2018-03-03T06:04:43.723Z,9.75
2018-03-03T06:07:22.086Z,5.45
2018-03-03T06:09:54.463Z,9.93
2018-03-03T06:12:22.116Z,10.77
2018-03-03T06:14:49.999Z,7.65
2018-03-03T06:17:17.643Z,8.95
2018-03-03T06:19:45.329Z,9.73
2018-03-03T06:22:12.998Z,9.45
2018-03-03T06:24:40.681Z,8.25
2018-03-03T06:27:08.405Z,9.15
2018-03-03T06:29:36.095Z,10.65
2018-03-03T06:32:03.750Z,8.13
2018-03-03T06:34:31.466Z,8.40
2018-03-03T06:36:59.113Z,10.48
2018-03-03T06:39:26.974Z,10.35
2018-03-03T06:41:54.623Z,10.18
2018-03-03T06:44:22.315Z,8.20
2018-03-03T06:46:49.964Z,9.80
2018-03-03T06:49:17.651Z,8.63
2018-03-03T06:51:45.454Z,8.98
2018-03-03T06:54:13.132Z,7.12
2018-03-03T06:56:40.770Z,9.43
2018-03-03T06:59:08.444Z,8.98
2018-03-03T07:01:36.080Z,9.45
2018-03-03T07:04:03.882Z,9.20
2018-03-03T07:06:31.530Z,8.45
2018-03-03T07:08:59.226Z,10.85
2018-03-03T07:11:26.894Z,10.20
2018-03-03T07:13:54.598Z,10.10
2018-03-03T07:16:22.259Z,7.60
2018-03-03T07:18:50.310Z,8.77
2018-03-03T07:21:17.964Z,8.57
2018-03-03T07:23:45.665Z,9.63
2018-03-03T07:26:13.346Z,9.80
2018-03-03T07:28:41.033Z,8.90
2018-03-03T07:31:08.697Z,8.02
2018-03-03T07:33:36.389Z,9.27
2018-03-03T07:36:04.080Z,6.43
2018-03-03T07:38:31.764Z,10.13
2018-03-03T07:40:59.434Z,7.75
2018-03-03T07:43:27.190Z,6.45
2018-03-03T07:45:54.908Z,7.75
2018-03-03T07:48:22.555Z,6.65
2018-03-03T07:50:50.421Z,8.00
2018-03-03T07:53:18.222Z,7.43
2018-03-03T07:55:46.035Z,5.50
2018-03-03T07:58:25.391Z,9.55
2018-03-03T08:00:53.085Z,10.40
2018-03-03T08:03:20.742Z,8.20
2018-03-03T08:05:48.545Z,11.02
2018-03-03T08:08:16.250Z,8.15
2018-03-03T08:10:43.972Z,10.15
2018-03-03T08:13:11.654Z,8.40
2018-03-03T08:15:39.356Z,8.63
2018-03-03T08:18:07.118Z,9.63
2018-03-03T08:20:34.812Z,6.60
2018-03-03T08:23:02.504Z,6.70
2018-03-03T08:25:30.196Z,6.87
2018-03-03T08:27:57.858Z,8.05
2018-03-03T08:30:25.546Z,9.57
2018-03-03T08:32:53.201Z,8.40
2018-03-03T08:35:20.888Z,8.02
2018-03-03T08:37:48.562Z,8.57
2018-03-03T08:40:16.246Z,8.98
2018-03-03T08:42:43.882Z,7.50
2018-03-03T08:45:11.556Z,8.40
2018-03-03T08:47:39.254Z,6.93
2018-03-03T08:50:06.932Z,9.15
2018-03-03T08:52:34.597Z,10.23
2018-03-03T08:55:02.288Z,7.35
2018-03-03T08:57:29.927Z,7.07
2018-03-03T08:59:57.632Z,8.88
2018-03-03T09:02:25.265Z,8.18
2018-03-03T09:04:52.958Z,9.90
2018-03-03T09:07:20.610Z,7.20
2018-03-03T09:09:48.275Z,7.85
2018-03-03T09:12:15.899Z,5.47
2018-03-03T09:14:43.568Z,7.87
2018-03-03T09:17:11.218Z,7.93
2018-03-03T09:19:38.880Z,7.65
2018-03-03T09:22:06.521Z,8.07
2018-03-03T09:24:34.182Z,6.22
2018-03-03T09:27:01.823Z,8.82
2018-03-03T09:29:29.452Z,7.97
2018-03-03T09:31:57.126Z,9.88
2018-03-03T09:34:24.748Z,9.95
2018-03-03T09:36:52.441Z,8.35
2018-03-03T09:39:20.072Z,7.45
2018-03-03T09:41:47.782Z,6.18
2018-03-03T09:44:15.412Z,7.05
2018-03-03T09:46:43.090Z,7.12
2018-03-03T09:49:10.744Z,9.18
2018-03-03T09:51:38.594Z,7.47
2018-03-03T09:54:06.434Z,5.40
2018-03-03T09:56:34.265Z,5.45
2018-03-03T09:59:02.046Z,6.00
2018-03-03T10:01:29.841Z,6.90
2018-03-03T10:03:57.586Z,6.95
2018-03-03T10:06:25.410Z,6.15
2018-03-03T10:08:53.254Z,7.15
2018-03-03T10:11:21.050Z,6.18
2018-03-03T10:13:48.732Z,7.90
2018-03-03T10:16:16.438Z,7.20
2018-03-03T10:18:44.098Z,6.70
2018-03-03T10:21:11.843Z,7.15
2018-03-03T10:23:39.550Z,5.75
2018-03-03T10:26:07.259Z,7.47
2018-03-03T10:28:49.196Z,6.47
2018-03-03T10:31:17.330Z,7.50
2018-03-03T10:33:44.970Z,8.10
2018-03-03T10:36:12.677Z,7.45
2018-03-03T10:38:40.335Z,6.28
2018-03-03T10:41:08.038Z,7.65
2018-03-03T10:43:35.766Z,5.10
2018-03-03T10:46:03.473Z,7.30
2018-03-03T10:48:31.152Z,6.72
2018-03-03T10:50:58.817Z,4.85
2018-03-03T10:53:26.619Z,5.50
2018-03-03T10:55:54.338Z,6.75
2018-03-03T10:58:22.061Z,6.43
2018-03-03T11:00:50.566Z,4.87
2018-03-03T11:03:18.291Z,4.62
2018-03-03T11:05:45.994Z,7.78
2018-03-03T11:08:13.786Z,4.35
2018-03-03T11:10:41.478Z,4.30
2018-03-03T11:13:09.206Z,7.22
2018-03-03T11:15:36.890Z,6.65
2018-03-03T11:18:04.618Z,5.15
2018-03-03T11:20:32.310Z,4.43
2018-03-03T11:23:00.116Z,6.20
2018-03-03T11:25:27.774Z,5.80
2018-03-03T11:27:55.496Z,5.43
2018-03-03T11:30:23.214Z,5.53
2018-03-03T11:32:50.932Z,4.97
2018-03-03T11:35:18.615Z,6.62
2018-03-03T11:37:46.335Z,5.87
2018-03-03T11:40:14.055Z,5.65
2018-03-03T11:42:41.790Z,5.70
2018-03-03T11:45:09.474Z,6.93
2018-03-03T11:47:37.193Z,5.05
2018-03-03T11:50:04.899Z,5.20
2018-03-03T11:52:32.576Z,4.68
2018-03-03T11:55:00.253Z,6.20
2018-03-03T11:57:27.996Z,5.47
2018-03-03T11:59:55.676Z,7.20
2018-03-03T12:02:23.458Z,5.95
2018-03-03T12:04:51.156Z,6.75
2018-03-03T12:07:18.893Z,7.60
2018-03-03T12:09:46.572Z,8.07
2018-03-03T12:12:14.292Z,6.10
2018-03-03T12:14:42.010Z,6.50
2018-03-03T12:17:09.711Z,7.68
2018-03-03T12:19:37.377Z,5.70
2018-03-03T12:22:05.078Z,5.97
2018-03-03T12:24:32.770Z,6.55
2018-03-03T12:27:00.502Z,5.90
2018-03-03T12:29:28.185Z,6.87
2018-03-03T12:31:55.931Z,8.10
2018-03-03T12:34:23.674Z,8.83
2018-03-03T12:36:51.397Z,9.32
2018-03-03T12:39:19.171Z,7.27
2018-03-03T12:41:46.897Z,5.87
2018-03-03T12:44:14.674Z,6.10
2018-03-03T12:46:42.451Z,7.10
2018-03-03T12:49:10.249Z,6.50
2018-03-03T12:51:37.978Z,6.03
2018-03-03T12:54:05.724Z,8.27
2018-03-03T12:56:33.400Z,6.63
2018-03-03T12:59:01.113Z,8.65
2018-03-03T13:01:28.790Z,11.40
2018-03-03T13:03:56.519Z,6.73
2018-03-03T13:06:24.230Z,6.17
2018-03-03T13:08:51.985Z,6.07
2018-03-03T13:11:19.642Z,7.78
2018-03-03T13:13:47.407Z,6.77
2018-03-03T13:16:15.172Z,9.67
2018-03-03T13:18:42.956Z,8.32
2018-03-03T13:21:10.709Z,8.02
2018-03-03T13:23:38.473Z,7.87
2018-03-03T13:26:06.157Z,6.43
2018-03-03T13:28:33.942Z,7.50
2018-03-03T13:31:01.617Z,6.62
2018-03-03T13:33:29.312Z,10.07
2018-03-03T13:35:57.126Z,10.48
2018-03-03T13:38:24.976Z,8.25
2018-03-03T13:40:52.659Z,9.98
2018-03-03T13:43:20.989Z,9.03
2018-03-03T13:45:48.894Z,7.37
2018-03-03T13:48:16.604Z,6.43
2018-03-03T13:50:44.279Z,8.50
2018-03-03T13:53:12.004Z,6.43
2018-03-03T13:55:39.683Z,7.55
2018-03-03T13:58:07.370Z,6.37
2018-03-03T14:00:35.066Z,8.75
2018-03-03T14:03:02.815Z,11.23
2018-03-03T14:05:30.502Z,10.10
2018-03-03T14:07:58.358Z,10.93
2018-03-03T14:10:26.184Z,7.77
2018-03-03T14:12:53.886Z,9.07
2018-03-03T14:15:21.618Z,8.80
2018-03-03T14:17:49.298Z,6.17
2018-03-03T14:20:17.056Z,5.80
2018-03-03T14:22:44.751Z,7.30
2018-03-03T14:25:12.486Z,5.62
2018-03-03T14:27:40.134Z,8.47
2018-03-03T14:30:07.827Z,8.52
2018-03-03T14:32:35.492Z,6.10
2018-03-03T14:35:03.262Z,5.87
2018-03-03T14:37:30.895Z,7.53
2018-03-03T14:39:58.618Z,6.43
2018-03-03T14:42:26.255Z,5.90
2018-03-03T14:44:53.987Z,6.60
2018-03-03T14:47:21.654Z,6.23
2018-03-03T14:49:49.346Z,7.60
2018-03-03T14:52:16.985Z,5.77
2018-03-03T14:54:44.716Z,7.97
2018-03-03T14:57:12.367Z,6.73
2018-03-03T14:59:40.062Z,6.40
2018-03-03T15:02:07.733Z,8.43
2018-03-03T15:04:35.411Z,6.67
2018-03-03T15:07:03.109Z,5.53
2018-03-03T15:09:30.813Z,8.60
2018-03-03T15:11:58.435Z,8.07
2018-03-03T15:14:26.130Z,6.57
2018-03-03T15:16:53.835Z,5.30
2018-03-03T15:19:21.516Z,7.83
2018-03-03T15:21:49.207Z,7.43
2018-03-03T15:24:17.011Z,5.13
2018-03-03T15:26:44.710Z,6.20
2018-03-03T15:29:12.420Z,6.27
2018-03-03T15:31:40.240Z,5.40
2018-03-03T15:34:07.995Z,5.93
2018-03-03T15:36:35.690Z,8.65
2018-03-03T15:39:03.487Z,7.12
2018-03-03T15:41:31.130Z,6.83
2018-03-03T15:43:58.910Z,6.55
2018-03-03T15:46:26.597Z,5.20
2018-03-03T15:48:54.327Z,7.03
2018-03-03T15:51:22.033Z,8.35
2018-03-03T15:53:49.730Z,7.28
2018-03-03T15:56:17.404Z,8.07
2018-03-03T15:58:45.077Z,7.97
2018-03-03T16:01:12.807Z,7.35
2018-03-03T16:03:40.485Z,9.40
2018-03-03T16:06:08.230Z,10.10
2018-03-03T16:08:35.960Z,9.17
2018-03-03T16:11:03.650Z,7.80
2018-03-03T16:13:31.392Z,9.25
2018-03-03T16:15:59.155Z,10.35
2018-03-03T16:18:26.999Z,9.98
2018-03-03T16:20:54.846Z,9.65
2018-03-03T16:23:22.679Z,8.90
2018-03-03T16:25:50.482Z,9.40
2018-03-03T16:28:18.258Z,9.60
2018-03-03T16:30:46.075Z,7.10
2018-03-03T16:33:13.831Z,7.93
2018-03-03T16:35:41.518Z,9.65
2018-03-03T16:38:09.198Z,9.35
2018-03-03T16:40:37.021Z,9.97
2018-03-03T16:43:04.736Z,9.15
2018-03-03T16:45:32.458Z,9.15
2018-03-03T16:48:00.170Z,10.30
2018-03-03T16:50:27.875Z,10.20
2018-03-03T16:52:55.697Z,9.95
2018-03-03T16:55:23.399Z,10.38
2018-03-03T16:57:51.088Z,9.95
2018-03-03T17:00:18.830Z,10.40
2018-03-03T17:02:46.486Z,11.63
2018-03-03T17:05:14.210Z,10.60
2018-03-03T17:07:41.868Z,10.73
2018-03-03T17:10:09.622Z,9.95
2018-03-03T17:12:37.290Z,10.30
2018-03-03T17:15:05.006Z,10.60
2018-03-03T17:17:32.650Z,10.03
2018-03-03T17:20:00.359Z,8.50
2018-03-03T17:22:28.014Z,10.73
2018-03-03T17:24:55.782Z,10.68
2018-03-03T17:27:23.466Z,11.73
2018-03-03T17:29:51.178Z,8.25
2018-03-03T17:32:18.853Z,10.30
2018-03-03T17:34:46.514Z,9.45
2018-03-03T17:37:14.195Z,10.10
2018-03-03T17:39:41.869Z,10.50
2018-03-03T17:42:09.590Z,10.55
2018-03-03T17:44:37.270Z,11.55
2018-03-03T17:47:04.973Z,10.73
2018-03-03T17:49:32.813Z,10.15
2018-03-03T17:52:00.631Z,10.30
2018-03-03T17:54:28.310Z,9.68
2018-03-03T17:56:56.046Z,10.90
2018-03-03T17:59:23.699Z,9.82
2018-03-03T18:01:51.437Z,10.32
2018-03-03T18:04:19.185Z,10.85
2018-03-03T18:06:46.932Z,11.02
2018-03-03T18:09:14.650Z,12.30
2018-03-03T18:11:42.377Z,10.40
2018-03-03T18:14:10.051Z,10.55
2018-03-03T18:16:37.774Z,10.88
2018-03-03T18:19:05.426Z,11.80
2018-03-03T18:21:33.203Z,11.30
2018-03-03T18:24:00.890Z,9.05
2018-03-03T18:26:28.609Z,10.60
2018-03-03T18:28:56.434Z,11.10
2018-03-03T18:31:24.114Z,10.38
2018-03-03T18:33:51.800Z,11.75
2018-03-03T18:36:19.511Z,10.70
2018-03-03T18:38:47.190Z,11.75
2018-03-03T18:41:14.918Z,12.23
2018-03-03T18:43:42.850Z,12.52
2018-03-03T18:46:10.618Z,11.75
2018-03-03T18:48:38.410Z,10.80
2018-03-03T18:51:06.139Z,10.57
2018-03-03T18:53:33.984Z,13.23
2018-03-03T18:56:01.749Z,12.07
2018-03-03T18:58:29.420Z,12.00
2018-03-03T19:00:57.109Z,12.00
2018-03-03T19:03:24.766Z,10.98
2018-03-03T19:05:52.489Z,12.13
2018-03-03T19:08:20.171Z,12.95
2018-03-03T19:10:47.855Z,11.50
2018-03-03T19:13:15.534Z,12.18
2018-03-03T19:15:43.168Z,11.57
2018-03-03T19:18:10.886Z,10.80
2018-03-03T19:20:38.567Z,12.37
2018-03-03T19:23:06.334Z,12.98
2018-03-03T19:25:34.052Z,10.85
2018-03-03T19:28:01.759Z,12.85
2018-03-03T19:30:29.413Z,13.40
2018-03-03T19:32:57.135Z,12.70
2018-03-03T19:35:24.785Z,12.32
2018-03-03T19:37:52.586Z,12.95
2018-03-03T19:40:20.322Z,11.77
2018-03-03T19:42:48.195Z,11.23
2018-03-03T19:45:16.006Z,11.95
2018-03-03T19:47:43.860Z,12.57
2018-03-03T19:50:11.508Z,10.45
2018-03-03T19:52:39.193Z,11.63
2018-03-03T19:55:06.837Z,12.10
2018-03-03T19:57:34.543Z,13.40
2018-03-03T20:00:02.336Z,13.50
2018-03-03T20:02:30.054Z,12.43
2018-03-03T20:04:57.744Z,13.07
2018-03-03T20:07:25.494Z,12.23
2018-03-03T20:09:53.155Z,12.25
2018-03-03T20:12:20.846Z,11.52
2018-03-03T20:14:48.523Z,12.35
2018-03-03T20:17:16.230Z,12.57
2018-03-03T20:19:43.977Z,11.70
2018-03-03T20:22:11.676Z,13.32
2018-03-03T20:24:39.426Z,13.23
2018-03-03T20:27:07.168Z,11.38
2018-03-03T20:29:34.862Z,13.07
2018-03-03T20:32:02.555Z,11.75
2018-03-03T20:34:30.251Z,11.63
2018-03-03T20:36:58.006Z,12.25
2018-03-03T20:39:25.691Z,11.73
2018-03-03T20:41:53.441Z,12.57
2018-03-03T20:44:21.136Z,12.27
2018-03-03T20:46:48.890Z,13.30
2018-03-03T20:49:16.589Z,12.13
2018-03-03T20:51:44.310Z,11.52
2018-03-03T20:54:12.001Z,11.32
2018-03-03T20:56:39.672Z,12.25
2018-03-03T20:59:07.372Z,12.05
2018-03-03T21:01:35.086Z,11.70
2018-03-03T21:04:02.783Z,12.23
2018-03-03T21:06:30.468Z,13.02
2018-03-03T21:08:58.181Z,10.85
2018-03-03T21:11:26.579Z,11.75
2018-03-03T21:13:54.311Z,12.00
2018-03-03T21:16:22.014Z,10.13
2018-03-03T21:18:49.735Z,11.93
2018-03-03T21:21:17.404Z,9.48
2018-03-03T21:23:45.096Z,12.10
2018-03-03T21:26:12.785Z,12.10
2018-03-03T21:28:40.473Z,11.48
2018-03-03T21:31:08.114Z,11.88
2018-03-03T21:33:35.794Z,11.15
2018-03-03T21:36:03.464Z,11.52
2018-03-03T21:38:31.330Z,10.32
2018-03-03T21:40:58.983Z,11.10
2018-03-03T21:43:26.668Z,11.52
2018-03-03T21:45:54.314Z,10.45
2018-03-03T21:48:22.022Z,8.75
2018-03-03T21:50:49.666Z,10.68
2018-03-03T21:53:17.387Z,12.25
2018-03-03T21:55:45.086Z,12.00
2018-03-03T21:58:12.770Z,10.48
2018-03-03T22:00:40.413Z,12.27
2018-03-03T22:03:08.176Z,11.38
2018-03-03T22:05:35.820Z,9.30
2018-03-03T22:08:03.591Z,10.98
2018-03-03T22:10:31.230Z,8.85
2018-03-03T22:12:58.956Z,8.00
2018-03-03T22:15:26.593Z,9.40
2018-03-03T22:17:54.278Z,10.02
2018-03-03T22:20:21.941Z,9.60
2018-03-03T22:22:49.625Z,11.95
2018-03-03T22:25:17.269Z,9.27
2018-03-03T22:27:45.051Z,10.38
2018-03-03T22:30:12.704Z,7.25
2018-03-03T22:32:40.398Z,7.87
2018-03-03T22:35:08.073Z,9.00
2018-03-03T22:37:35.779Z,8.18
2018-03-03T22:40:03.433Z,7.05
2018-03-03T22:42:31.060Z,7.68
2018-03-03T22:44:58.750Z,9.55
2018-03-03T22:47:26.387Z,10.73
2018-03-03T22:49:54.156Z,9.32
2018-03-03T22:52:21.824Z,8.05
2018-03-03T22:54:49.511Z,8.05
2018-03-03T22:57:17.160Z,10.27
2018-03-03T22:59:44.871Z,8.00
2018-03-03T23:02:12.562Z,8.63
2018-03-03T23:04:40.248Z,9.27
2018-03-03T23:07:07.881Z,8.82
2018-03-03T23:09:35.562Z,9.75
2018-03-03T23:12:03.234Z,11.35
2018-03-03T23:14:31.006Z,10.18
2018-03-03T23:16:58.680Z,9.65
2018-03-03T23:19:26.506Z,9.05
2018-03-03T23:21:54.156Z,9.90
2018-03-03T23:24:21.852Z,9.20
2018-03-03T23:26:49.510Z,8.38
2018-03-03T23:29:17.186Z,10.00
2018-03-03T23:31:44.936Z,9.73
2018-03-03T23:34:12.773Z,9.45
2018-03-03T23:36:40.418Z,9.07
2018-03-03T23:39:08.120Z,9.95
2018-03-03T23:41:35.757Z,10.27
2018-03-03T23:44:03.483Z,8.40
2018-03-03T23:46:31.133Z,7.68
2018-03-03T23:48:58.815Z,8.25
2018-03-03T23:51:26.610Z,11.15
2018-03-03T23:53:54.293Z,9.27
2018-03-03T23:56:21.936Z,9.90
2018-03-03T23:58:49.693Z,8.55
